Time;durP1;ratioP1;P1;durP2;ratioP2;P2;SDS_P1;SDS_P2;PMS_P1;PMS_P2;Temp;Humidity;BMP_temperature;BMP_pressure;BME280_temperature;BME280_humidity;BME280_pressure;Samples;Min_cycle;Max_cycle;Signal;HPM_P1;HPM_P2
2022/02/10 00:06:51;;;;;;;12.93;5.93;;;;;;;7.35;100.00;101837.25;6269898;28;20045;-87
2022/02/10 00:20:09;;;;;;;15.70;6.85;;;;;;;7.27;100.00;101836.59;6314907;28;20079;-87
2022/02/10 00:23:28;;;;;;;19.63;6.65;;;;;;;7.26;100.00;101833.06;6322644;28;20052;-87
2022/02/10 00:36:45;;;;;;;15.02;5.97;;;;;;;7.21;100.00;101802.72;6311251;28;20044;-85
2022/02/10 00:40:04;;;;;;;14.13;6.80;;;;;;;7.20;100.00;101804.47;6322293;28;20044;-87
2022/02/10 00:43:07;;;;;;;15.50;7.05;;;;;;;7.17;100.00;101804.53;6322601;28;20048;-86
2022/02/10 00:46:08;;;;;;;13.65;6.07;;;;;;;7.16;100.00;101807.19;6322466;28;20041;-86
2022/02/10 00:49:11;;;;;;;12.95;6.72;;;;;;;7.16;100.00;101791.50;6322418;28;20056;-87
2022/02/10 00:52:13;;;;;;;17.67;6.90;;;;;;;7.12;100.00;101793.31;6321813;28;20048;-86
2022/02/10 00:55:17;;;;;;;13.70;6.22;;;;;;;7.12;100.00;101788.09;6322391;28;20052;-87
2022/02/10 00:58:23;;;;;;;16.30;6.57;;;;;;;7.12;100.00;101788.94;6323617;28;20197;-87
2022/02/10 01:11:56;;;;;;;;;;;;;;;7.13;100.00;101768.91;6326991;28;20056;-85
2022/02/10 01:31:27;;;;;;;17.50;7.33;;;;;;;7.18;100.00;101747.91;6326032;28;20499;-85
2022/02/10 01:34:30;;;;;;;12.45;6.53;;;;;;;7.20;100.00;101751.31;6326679;28;20761;-85
2022/02/10 01:37:34;;;;;;;13.90;6.10;;;;;;;7.20;100.00;101738.25;6326207;28;20061;-85
2022/02/10 01:41:01;;;;;;;16.02;6.90;;;;;;;7.22;100.00;101732.13;6326066;28;20063;-85
2022/02/10 02:03:58;;;;;;;16.17;6.43;;;;;;;7.10;100.00;101694.03;6325486;28;20048;-84
2022/02/10 02:07:00;;;;;;;16.45;7.70;;;;;;;7.05;100.00;101689.81;6325375;28;20102;-84
2022/02/10 02:10:02;;;;;;;15.57;6.95;;;;;;;7.02;100.00;101688.13;6324638;28;20479;-84
2022/02/10 02:13:04;;;;;;;16.00;7.13;;;;;;;7.02;100.00;101674.19;6325211;28;20047;-84
2022/02/10 02:16:06;;;;;;;18.65;8.35;;;;;;;6.99;100.00;101669.91;6325420;28;20048;-84
2022/02/10 02:19:08;;;;;;;16.55;7.43;;;;;;;7.02;100.00;101669.81;6325334;28;20044;-85
2022/02/10 02:22:13;;;;;;;17.40;8.07;;;;;;;7.05;100.00;101675.00;6325028;28;20051;-85
2022/02/10 02:25:15;;;;;;;17.42;7.97;;;;;;;7.07;100.00;101665.34;6325468;28;20080;-85
2022/02/10 02:28:16;;;;;;;16.50;7.00;;;;;;;7.09;100.00;101666.19;6324725;28;20499;-85
2022/02/10 02:31:20;;;;;;;18.63;7.88;;;;;;;7.09;100.00;101658.34;6325189;28;20131;-85
2022/02/10 02:34:46;;;;;;;21.63;8.60;;;;;;;7.09;100.00;101660.09;6325091;28;20048;-85
2022/02/10 03:07:48;;;;;;;13.85;6.07;;;;;;;7.03;100.00;101621.03;6325627;28;20048;-84
2022/02/10 03:11:02;;;;;;;15.02;7.20;;;;;;;7.03;100.00;101613.19;6324759;28;20043;-86
2022/02/10 03:14:08;;;;;;;18.80;6.38;;;;;;;7.04;100.00;101613.19;6324585;28;20055;-85
2022/02/10 03:20:44;;;;;;;16.80;6.65;;;;;;;7.05;100.00;101600.97;6319749;28;20052;-85
2022/02/10 04:04:13;;;;;;;15.68;5.50;;;;;;;6.93;100.00;101536.78;6322032;28;20076;-85
2022/02/10 04:11:01;;;;;;;13.85;5.22;;;;;;;6.94;100.00;101533.28;6311680;28;20048;-85
2022/02/10 04:14:10;;;;;;;19.73;6.00;;;;;;;6.97;100.00;101530.59;6323130;28;20059;-85
2022/02/10 04:17:34;;;;;;;14.57;6.15;;;;;;;6.97;100.00;101530.59;6323354;28;20089;-85
2022/02/10 04:20:53;;;;;;;11.32;5.40;;;;;;;6.97;100.00;101532.34;6322931;28;20044;-85
2022/02/10 04:24:12;;;;;;;10.27;5.18;;;;;;;6.97;100.00;101527.97;6323209;28;20059;-85
2022/02/10 04:27:23;;;;;;;18.33;6.10;;;;;;;6.99;100.00;101522.69;6323087;28;20056;-86
2022/02/10 04:30:45;;;;;;;13.95;5.05;;;;;;;6.98;100.00;101521.00;6323031;28;20052;-85
2022/02/10 04:37:47;;;;;;;9.25;4.68;;;;;;;6.99;100.00;101520.09;6322267;28;20056;-86
2022/02/10 04:54:49;;;;;;;11.07;4.40;;;;;;;7.04;100.00;101499.91;6322184;28;20488;-85
2022/02/10 04:58:11;;;;;;;12.88;5.07;;;;;;;7.03;100.00;101496.44;6322232;28;20058;-85
2022/02/10 05:01:26;;;;;;;10.75;5.53;;;;;;;7.05;100.00;101493.81;6322408;28;20113;-85
2022/02/10 05:05:08;;;;;;;13.25;4.88;;;;;;;7.03;100.00;101491.22;6322771;28;20055;-85
2022/02/10 05:08:42;;;;;;;12.27;5.10;;;;;;;7.04;100.00;101486.84;6321867;28;20044;-85
2022/02/10 05:15:34;;;;;;;14.00;5.35;;;;;;;7.02;100.00;101472.97;6321989;28;20135;-86
2022/02/10 05:18:52;;;;;;;14.57;6.25;;;;;;;7.02;100.00;101470.38;6321517;28;20058;-85
2022/02/10 05:22:27;;;;;;;11.38;4.72;;;;;;;7.03;100.00;101465.09;6321688;28;20162;-85
2022/02/10 05:32:35;;;;;;;11.38;4.70;;;;;;;7.03;100.00;101459.84;6321340;28;20052;-84
2022/02/10 05:35:41;;;;;;;12.93;5.65;;;;;;;7.04;100.00;101460.72;6322585;28;20149;-85
2022/02/10 05:38:48;;;;;;;13.57;4.93;;;;;;;7.06;100.00;101459.78;6323217;28;20486;-85
2022/02/10 05:42:12;;;;;;;15.15;5.43;;;;;;;7.08;100.00;101468.44;6323226;28;20055;-85
2022/02/10 05:45:22;;;;;;;12.57;5.40;;;;;;;7.07;100.00;101464.09;6326285;28;20055;-84
2022/02/10 05:48:44;;;;;;;9.18;5.00;;;;;;;7.07;100.00;101464.09;6326691;28;20063;-85
2022/02/10 05:52:45;;;;;;;16.08;5.72;;;;;;;7.06;100.00;101456.31;6318662;28;20048;-84
2022/02/10 05:59:21;;;;;;;9.90;4.70;;;;;;;7.03;100.00;101445.94;6309230;28;20052;-84
2022/02/10 06:03:06;;;;;;;11.88;4.93;;;;;;;7.01;100.00;101439.91;6325663;28;20135;-85
2022/02/10 06:49:56;;;;;;;12.60;6.43;;;;;;;6.99;100.00;101446.91;6325239;28;20119;-84
2022/02/10 06:53:14;;;;;;;11.48;5.10;;;;;;;6.96;100.00;101434.81;6324143;28;20298;-84
2022/02/10 06:56:40;;;;;;;15.20;5.50;;;;;;;6.99;100.00;101432.09;6324325;28;20060;-84
2022/02/10 07:06:37;;;;;;;13.82;6.63;;;;;;;7.02;100.00;101437.25;6323250;28;20072;-86
2022/02/10 07:10:13;;;;;;;19.60;6.63;;;;;;;7.04;100.00;101440.69;6324668;28;20048;-86
2022/02/10 07:17:23;;;;;;;19.40;6.75;;;;;;;7.01;100.00;101435.53;6299110;28;20056;-85
2022/02/10 07:51:12;;;;;;;14.05;5.35;;;;;;;7.09;100.00;101428.34;6321745;28;20048;-82
2022/02/10 07:54:20;;;;;;;15.02;6.15;;;;;;;7.07;100.00;101424.91;6321816;28;20059;-81
2022/02/10 07:57:35;;;;;;;14.35;6.03;;;;;;;7.06;100.00;101432.81;6314120;28;20052;-81
2022/02/10 08:54:50;;;;;;;12.88;6.70;;;;;;;6.41;100.00;101451.06;6321734;28;20135;-78
2022/02/10 08:58:18;;;;;;;17.20;6.45;;;;;;;6.44;100.00;101458.81;6321204;28;20052;-79
2022/02/10 09:01:40;;;;;;;15.13;7.80;;;;;;;6.35;100.00;101450.28;6321404;28;20052;-79
2022/02/10 09:04:54;;;;;;;23.25;8.15;;;;;;;6.37;100.00;101458.09;6322442;28;20055;-79
2022/02/10 09:08:20;;;;;;;26.33;8.60;;;;;;;6.34;100.00;101461.63;6321635;28;20044;-78
2022/02/10 09:15:01;;;;;;;13.52;5.47;;;;;;;6.21;100.00;101491.53;6323315;28;20098;-79
2022/02/10 09:18:33;;;;;;;4.70;2.80;;;;;;;6.06;100.00;101494.50;6322059;28;20483;-79
2022/02/10 09:22:28;;;;;;;4.78;2.00;;;;;;;5.94;100.00;101497.38;6323405;28;20070;-77
2022/02/10 09:55:42;;;;;;;0.93;0.70;;;;;;;5.64;100.00;101519.75;6321383;28;20076;-78
2022/02/10 09:59:04;;;;;;;1.08;0.88;;;;;;;5.78;100.00;101518.56;6320701;28;20055;-81
2022/02/10 10:02:10;;;;;;;0.43;0.43;;;;;;;5.76;100.00;101517.72;6327268;28;20055;-77
2022/02/10 10:05:22;;;;;;;3.33;1.15;;;;;;;5.87;100.00;101514.91;6325666;28;20059;-77
2022/02/10 10:08:38;;;;;;;1.05;0.80;;;;;;;5.87;100.00;101522.72;6321664;28;20101;-78
2022/02/10 10:12:11;;;;;;;0.80;0.70;;;;;;;5.80;100.00;101527.19;6325005;28;20054;-78
2022/02/10 10:15:36;;;;;;;2.72;0.98;;;;;;;5.93;100.00;101522.63;6324968;28;20510;-78
2022/02/10 10:19:00;;;;;;;2.05;0.80;;;;;;;5.88;100.00;101534.00;6299928;28;20060;-78
2022/02/10 10:22:17;;;;;;;1.70;1.23;;;;;;;5.85;100.00;101537.53;6347595;28;20044;-77
2022/02/10 10:26:08;;;;;;;1.05;0.80;;;;;;;5.88;100.00;101532.25;6339518;28;20535;-77
2022/02/10 10:53:11;;;;;;;7.03;1.50;;;;;;;6.08;100.00;101530.09;6324308;28;20394;-77
2022/02/10 10:56:17;;;;;;;;;;;;;;;6.06;100.00;101529.28;6341570;28;20449;-80
2022/02/10 10:59:36;;;;;;;2.55;1.25;;;;;;;6.12;100.00;101512.63;6349924;28;19932;-78
2022/02/10 11:40:22;;;;;;;3.45;2.00;;;;;;;6.22;100.00;101513.28;6321817;28;20426;-80
2022/02/10 11:43:34;;;;;;;4.45;1.90;;;;;;;6.20;100.00;101515.06;6322389;28;20094;-80
2022/02/10 11:47:42;;;;;;;3.70;2.05;;;;;;;6.21;100.00;101512.41;6322662;28;20101;-79
2022/02/10 12:02:05;;;;;;;11.00;3.90;;;;;;;6.38;100.00;101491.16;6245679;28;20081;-78
2022/02/10 14:10:43;;;;;;;5.03;1.85;;;;;;;7.36;100.00;101536.53;6341328;28;20093;-79
2022/02/10 14:13:51;;;;;;;2.42;1.33;;;;;;;7.16;100.00;101532.72;6343715;28;20043;-79
2022/02/10 14:16:56;;;;;;;3.00;1.67;;;;;;;7.12;100.00;101530.19;6342388;28;20057;-79
2022/02/10 14:20:12;;;;;;;2.30;1.60;;;;;;;7.02;100.00;101533.09;6318743;28;20056;-79
2022/02/10 14:25:38;;;;;;;1.73;1.27;;;;;;;6.94;100.00;101540.25;6318826;28;20237;-79
2022/02/10 14:26:48;;;;;;;2.95;1.73;;;;;;;6.99;100.00;101546.22;6319319;28;20048;-78
2022/02/10 14:29:50;;;;;;;2.70;1.52;;;;;;;6.90;100.00;101546.44;6318154;28;20487;-78
2022/02/10 14:32:51;;;;;;;3.05;1.48;;;;;;;6.90;100.00;101539.47;6325632;28;20044;-80
2022/02/10 14:35:57;;;;;;;3.83;2.22;;;;;;;6.84;100.00;101544.84;6344861;28;20043;-79
2022/02/10 14:39:21;;;;;;;4.53;1.60;;;;;;;6.78;100.00;101545.88;6345960;27;20442;-78
2022/02/10 15:29:50;;;;;;;1.05;0.88;;;;;;;6.63;100.00;101563.66;6341150;28;20047;-81
2022/02/10 15:36:17;;;;;;;1.70;1.05;;;;;;;6.65;100.00;101575.78;6349734;28;20051;-80
2022/02/10 15:46:35;;;;;;;6.25;1.20;;;;;;;6.50;100.00;101563.13;6298782;28;20127;-82
2022/02/10 15:56:50;;;;;;;1.48;0.95;;;;;;;6.56;100.00;101571.66;6340572;28;20052;-79
2022/02/10 16:16:52;;;;;;;1.23;1.02;;;;;;;6.29;100.00;101567.91;6306322;28;20420;-78
2022/02/10 16:19:55;;;;;;;2.83;1.25;;;;;;;6.30;100.00;101574.84;6310339;28;20055;-79
2022/02/10 16:23:01;;;;;;;7.15;1.25;;;;;;;6.26;100.00;101572.34;6320148;28;20080;-79
2022/02/10 16:26:11;;;;;;;3.88;1.25;;;;;;;6.23;100.00;101567.22;6320319;28;20074;-82
2022/02/10 16:29:17;;;;;;;1.67;1.00;;;;;;;6.18;100.00;101571.69;6317025;28;20051;-81
2022/02/10 16:32:18;;;;;;;4.40;1.15;;;;;;;6.15;100.00;101564.75;6313617;28;20044;-82
2022/02/10 16:35:25;;;;;;;1.92;1.00;;;;;;;6.14;100.00;101560.44;6307238;28;20067;-82
2022/02/10 16:38:26;;;;;;;3.30;1.63;;;;;;;6.15;100.00;101571.72;6315170;28;20045;-83
2022/02/10 16:41:28;;;;;;;1.83;1.23;;;;;;;6.14;100.00;101567.41;6316560;28;20511;-82
2022/02/10 16:44:29;;;;;;;2.15;1.52;;;;;;;6.14;100.00;101570.03;6321347;28;20200;-81
2022/02/10 16:47:31;;;;;;;5.57;1.80;;;;;;;6.10;100.00;101572.69;6325357;28;20435;-79
2022/02/10 16:50:33;;;;;;;1.23;1.00;;;;;;;6.14;100.00;101572.63;6334955;28;20392;-81
2022/02/10 16:53:35;;;;;;;2.00;1.35;;;;;;;6.12;100.00;101563.97;6344379;28;20052;-80
2022/02/10 16:56:47;;;;;;;5.57;1.50;;;;;;;6.10;100.00;101572.69;6314479;28;20062;-77
2022/02/10 16:59:53;;;;;;;2.10;1.00;;;;;;;6.12;100.00;101570.03;6318095;28;20055;-78
2022/02/10 17:03:15;;;;;;;2.45;1.10;;;;;;;6.05;100.00;101576.28;6322570;28;20081;-77
2022/02/10 17:20:11;;;;;;;1.23;1.10;;;;;;;5.91;100.00;101584.38;6316676;28;20044;-78
2022/02/10 17:26:46;;;;;;;5.00;2.20;;;;;;;5.85;100.00;101574.91;6314370;28;20044;-78
2022/02/10 17:33:16;;;;;;;2.03;1.45;;;;;;;5.84;100.00;101585.38;6326349;28;20052;-78
2022/02/10 17:36:31;;;;;;;7.03;1.70;;;;;;;5.79;100.00;101585.47;6316323;28;20053;-78
2022/02/10 17:46:40;;;;;;;2.83;1.40;;;;;;;5.83;100.00;101605.38;6280301;28;20056;-79
2022/02/10 17:53:04;;;;;;;2.77;1.00;;;;;;;5.77;100.00;101600.31;6316564;28;20127;-79
2022/02/10 17:56:08;;;;;;;2.17;1.10;;;;;;;5.73;100.00;101593.44;6325951;28;20051;-79
2022/02/10 17:59:10;;;;;;;4.70;1.40;;;;;;;5.74;100.00;101609.94;6330823;28;20044;-79
2022/02/10 18:02:13;;;;;;;2.15;1.33;;;;;;;5.74;100.00;101613.38;6317224;28;20048;-79
2022/02/10 18:05:35;;;;;;;2.67;1.60;;;;;;;5.73;100.00;101611.69;6311135;28;20041;-79
2022/02/10 18:08:42;;;;;;;3.22;1.10;;;;;;;5.69;100.00;101615.22;6312966;28;20042;-79
2022/02/10 18:15:24;;;;;;;1.95;0.93;;;;;;;5.68;100.00;101616.13;6310993;28;20052;-80
2022/02/10 18:18:32;;;;;;;2.97;1.73;;;;;;;5.63;100.00;101620.53;6314093;28;20125;-79
2022/02/10 18:21:55;;;;;;;2.33;1.00;;;;;;;5.64;100.00;101618.81;6323110;28;20040;-79
2022/02/10 18:25:09;;;;;;;1.30;1.08;;;;;;;5.69;100.00;101625.66;6316276;28;20044;-78
2022/02/10 18:28:28;;;;;;;3.42;1.10;;;;;;;5.62;100.00;101624.03;6321919;28;20047;-78
2022/02/10 19:02:19;;;;;;;31.45;9.40;;;;;;;5.51;100.00;101641.66;6252721;28;20049;-78
2022/02/10 19:08:47;;;;;;;1.05;0.45;;;;;;;5.52;100.00;101646.81;6227206;28;20132;-83
2022/02/10 19:11:56;;;;;;;1.45;0.82;;;;;;;5.57;100.00;101646.75;6247053;28;20132;-80
2022/02/10 19:15:08;;;;;;;4.03;1.58;;;;;;;5.50;100.00;101648.63;6251453;28;20061;-79
2022/02/10 19:18:11;;;;;;;3.17;0.52;;;;;;;5.50;100.00;101647.75;6251516;28;20559;-78
2022/02/10 19:21:13;;;;;;;3.08;0.65;;;;;;;5.54;100.00;101650.28;6248794;28;20045;-80
2022/02/10 19:24:14;;;;;;;0.57;0.30;;;;;;;5.50;100.00;101645.16;6249254;28;20060;-80
2022/02/10 19:27:17;;;;;;;1.00;0.63;;;;;;;5.44;100.00;101651.31;6250967;28;20048;-80
2022/02/10 19:30:20;;;;;;;2.95;0.93;;;;;;;5.45;100.00;101647.84;6250505;28;20432;-79
2022/02/10 19:33:23;;;;;;;2.60;0.45;;;;;;;5.43;100.00;101659.16;6251104;28;20041;-79
2022/02/10 19:36:24;;;;;;;4.28;0.75;;;;;;;5.34;100.00;101648.00;6248185;28;20076;-80
2022/02/10 19:39:26;;;;;;;0.30;0.30;;;;;;;5.22;100.00;101642.13;6244216;28;20057;-79
2022/02/10 19:42:32;;;;;;;3.28;1.10;;;;;;;5.12;100.00;101645.78;6237839;28;20468;-79
2022/02/10 19:45:33;;;;;;;3.28;0.68;;;;;;;5.06;100.00;101652.81;6251406;28;20523;-80
2022/02/10 19:48:36;;;;;;;1.17;0.60;;;;;;;5.02;100.00;101650.28;6252060;28;20068;-80
2022/02/10 19:51:45;;;;;;;4.05;0.40;;;;;;;5.03;100.00;101663.28;6250664;28;20056;-79
2022/02/10 19:54:50;;;;;;;0.60;0.50;;;;;;;5.03;100.00;101667.63;6250784;28;20071;-79
2022/02/10 19:58:01;;;;;;;4.35;0.90;;;;;;;4.92;100.00;101667.81;6250261;28;20050;-79
2022/02/10 20:01:03;;;;;;;2.20;0.60;;;;;;;4.88;100.00;101668.75;6246512;28;20049;-79
2022/02/10 20:04:09;;;;;;;1.05;0.65;;;;;;;4.82;100.00;101667.09;6246567;28;20393;-79
2022/02/10 20:07:12;;;;;;;1.85;1.13;;;;;;;4.74;100.00;101665.47;6248581;28;20072;-79
2022/02/10 20:10:13;;;;;;;7.38;0.70;;;;;;;4.74;100.00;101666.34;6250000;28;20053;-80
2022/02/10 20:13:17;;;;;;;2.05;0.88;;;;;;;4.68;100.00;101663.84;6249985;28;20048;-79
2022/02/10 20:16:18;;;;;;;0.63;0.47;;;;;;;4.67;100.00;101666.44;6250886;28;20104;-80
2022/02/10 20:19:21;;;;;;;1.80;0.75;;;;;;;4.67;100.00;101664.69;6228464;28;20433;-80
2022/02/10 20:22:23;;;;;;;3.70;0.90;;;;;;;4.68;100.00;101657.72;6245106;28;20045;-82
2022/02/10 20:25:25;;;;;;;1.38;1.10;;;;;;;4.67;100.00;101659.47;6249137;28;20050;-82
2022/02/10 20:28:28;;;;;;;3.58;0.93;;;;;;;4.65;100.00;101663.00;6232480;28;20045;-82
2022/02/10 20:31:30;;;;;;;1.30;0.82;;;;;;;4.55;100.00;101675.28;6224314;28;20158;-82
2022/02/10 20:34:33;;;;;;;4.80;1.40;;;;;;;4.52;100.00;101670.97;6224557;28;20053;-82
2022/02/10 20:37:35;;;;;;;1.48;0.95;;;;;;;4.52;100.00;101673.56;6236257;28;20459;-82
2022/02/10 20:40:40;;;;;;;4.95;0.93;;;;;;;4.57;100.00;101681.31;6248090;28;20514;-82
2022/02/10 20:43:43;;;;;;;2.35;0.77;;;;;;;4.54;100.00;101671.84;6250076;28;20049;-81
2022/02/10 20:46:49;;;;;;;4.05;0.85;;;;;;;4.49;100.00;101665.78;6248023;28;20508;-82
2022/02/10 20:49:52;;;;;;;2.45;0.70;;;;;;;4.48;100.00;101665.84;6248847;28;20052;-81
2022/02/10 20:52:53;;;;;;;43.20;13.23;;;;;;;4.51;100.00;101652.78;6246490;28;20049;-82
2022/02/10 20:55:57;;;;;;;0.60;0.47;;;;;;;4.53;100.00;101661.41;6245709;28;20045;-82
2022/02/10 20:59:06;;;;;;;1.08;0.60;;;;;;;4.45;100.00;101674.56;6247934;28;20076;-81
2022/02/10 21:02:13;;;;;;;0.77;0.70;;;;;;;4.49;100.00;101654.53;6246121;28;20053;-82
2022/02/10 21:05:28;;;;;;;6.70;1.02;;;;;;;4.40;100.00;101658.13;6245414;28;20042;-82
2022/02/10 21:08:35;;;;;;;1.38;0.43;;;;;;;4.45;100.00;101651.13;6242908;28;20053;-81
2022/02/10 21:11:37;;;;;;;2.05;0.90;;;;;;;4.42;100.00;101643.34;6248176;28;20053;-84
2022/02/10 21:14:41;;;;;;;3.58;1.02;;;;;;;4.40;100.00;101642.50;6246579;28;20058;-83
2022/02/10 21:17:45;;;;;;;0.93;0.80;;;;;;;4.42;100.00;101651.16;6250459;28;20535;-83
2022/02/10 21:20:51;;;;;;;0.60;0.60;;;;;;;4.33;100.00;101652.16;6243838;28;20042;-84
2022/02/10 21:23:57;;;;;;;0.38;0.38;;;;;;;4.33;100.00;101667.75;6243605;28;20067;-83
2022/02/10 21:27:22;;;;;;;6.28;0.60;;;;;;;4.29;100.00;101662.63;6246766;28;20089;-82
2022/02/10 21:30:27;;;;;;;2.22;0.80;;;;;;;4.29;100.00;101666.06;6237286;28;20515;-82
2022/02/10 21:33:43;;;;;;;1.77;0.70;;;;;;;4.25;100.00;101663.53;6248243;28;20053;-82
2022/02/10 21:36:59;;;;;;;3.53;1.23;;;;;;;4.25;100.00;101674.78;6242554;28;20068;-83
2022/02/10 21:40:13;;;;;;;1.27;0.80;;;;;;;4.22;100.00;101677.41;6246855;28;20056;-82
2022/02/10 21:56:47;;;;;;;2.40;0.75;;;;;;;4.12;100.00;101672.34;6244178;28;20061;-81
2022/02/10 21:59:57;;;;;;;0.90;0.60;;;;;;;4.14;100.00;101662.81;6245409;28;20103;-82
2022/02/10 22:09:46;;;;;;;3.13;1.45;;;;;;;4.07;100.00;101667.22;6245402;28;20139;-82
2022/02/10 22:19:42;;;;;;;3.80;0.60;;;;;;;4.05;100.00;101655.97;6248838;28;20041;-82
2022/02/10 22:23:00;;;;;;;0.70;0.60;;;;;;;4.05;100.00;101658.56;6247119;28;20437;-82
2022/02/10 22:26:06;;;;;;;6.18;1.00;;;;;;;4.06;100.00;101655.94;6243424;28;20059;-83
2022/02/10 22:29:12;;;;;;;1.10;0.75;;;;;;;4.05;100.00;101659.44;6251455;28;20055;-83
2022/02/10 22:32:22;;;;;;;0.77;0.60;;;;;;;4.04;100.00;101668.13;6250946;28;20046;-83
2022/02/10 22:35:25;;;;;;;3.47;1.40;;;;;;;4.01;100.00;101678.56;6251215;28;20555;-83
2022/02/10 22:38:27;;;;;;;0.80;0.57;;;;;;;3.98;100.00;101668.16;6251372;28;20046;-82
2022/02/10 22:41:30;;;;;;;1.25;0.68;;;;;;;3.99;100.00;101667.28;6250703;28;20420;-82
2022/02/10 22:44:31;;;;;;;0.82;0.63;;;;;;;3.93;100.00;101662.16;6250709;28;20045;-82
2022/02/10 22:47:33;;;;;;;2.35;0.80;;;;;;;3.97;100.00;101661.25;6244810;28;20056;-82
2022/02/10 22:50:34;;;;;;;0.88;0.77;;;;;;;3.98;100.00;101667.31;6249936;28;20049;-82
2022/02/10 22:53:36;;;;;;;1.95;0.95;;;;;;;3.96;100.00;101658.69;6250205;28;20041;-82
2022/02/10 22:56:41;;;;;;;5.07;1.40;;;;;;;4.00;100.00;101662.97;6250765;28;20052;-82
2022/02/10 22:59:43;;;;;;;1.17;0.93;;;;;;;4.00;100.00;101669.03;6250669;28;20050;-83
2022/02/10 23:02:44;;;;;;;1.02;0.63;;;;;;;4.07;100.00;101662.88;6249545;28;20100;-82
2022/02/10 23:05:46;;;;;;;1.10;0.60;;;;;;;4.04;100.00;101660.31;6250952;28;20481;-83
2022/02/10 23:08:48;;;;;;;1.17;0.60;;;;;;;3.99;100.00;101669.88;6250639;28;20523;-83
2022/02/10 23:11:51;;;;;;;1.00;0.70;;;;;;;4.01;100.00;101662.94;6250507;28;20643;-83
2022/02/10 23:14:52;;;;;;;6.60;1.10;;;;;;;3.99;100.00;101658.63;6250728;28;20050;-83
2022/02/10 23:17:53;;;;;;;1.45;0.82;;;;;;;3.93;100.00;101664.75;6250658;28;20049;-83
2022/02/10 23:20:59;;;;;;;0.77;0.50;;;;;;;4.00;100.00;101660.38;6250061;28;20056;-83
2022/02/10 23:24:00;;;;;;;0.93;0.70;;;;;;;3.91;100.00;101663.94;6250078;28;20509;-83
2022/02/10 23:27:03;;;;;;;3.75;1.35;;;;;;;3.91;100.00;101661.34;6250242;28;20050;-83
2022/02/10 23:30:05;;;;;;;2.75;1.17;;;;;;;3.93;100.00;101659.56;6250273;28;20053;-83
2022/02/10 23:33:14;;;;;;;2.58;0.80;;;;;;;3.88;100.00;101657.91;6250224;28;20049;-83
2022/02/10 23:39:38;;;;;;;2.72;0.88;;;;;;;3.89;100.00;101655.28;6249616;28;20046;-82
2022/02/10 23:42:41;;;;;;;1.80;0.80;;;;;;;3.93;100.00;101648.31;6249693;28;20053;-82
2022/02/10 23:45:43;;;;;;;1.25;0.68;;;;;;;3.85;100.00;101647.53;6249541;28;20188;-83
2022/02/10 23:48:45;;;;;;;3.47;1.65;;;;;;;3.83;100.00;101660.56;6249689;28;20050;-83
2022/02/10 23:51:52;;;;;;;3.95;0.90;;;;;;;3.85;100.00;101660.53;6249129;28;20080;-82
2022/02/10 23:55:05;;;;;;;5.07;1.00;;;;;;;3.86;100.00;101657.94;6249713;28;20055;-83
2022/02/10 23:58:19;;;;;;;3.58;1.17;;;;;;;3.85;100.00;101650.97;6249720;28;20084;-83
